sensor_id;sensor_type;location;lat;lon;timestamp;temperature;humidity
79571;DHT22;69034;49.444;7.758;2023-05-14T00:02:27;16.00;53.10
79571;DHT22;69034;49.444;7.758;2023-05-14T00:06:28;16.00;53.20
79571;DHT22;69034;49.444;7.758;2023-05-14T00:10:29;16.10;53.20
79571;DHT22;69034;49.444;7.758;2023-05-14T00:14:29;16.10;53.20
79571;DHT22;69034;49.444;7.758;2023-05-14T00:18:30;16.10;53.00
79571;DHT22;69034;49.444;7.758;2023-05-14T00:22:32;16.10;52.90
79571;DHT22;69034;49.444;7.758;2023-05-14T00:26:32;16.10;52.90
79571;DHT22;69034;49.444;7.758;2023-05-14T00:30:33;16.10;53.00
79571;DHT22;69034;49.444;7.758;2023-05-14T00:34:34;16.10;53.00
79571;DHT22;69034;49.444;7.758;2023-05-14T00:38:36;16.00;52.90
79571;DHT22;69034;49.444;7.758;2023-05-14T00:42:36;15.90;52.80
79571;DHT22;69034;49.444;7.758;2023-05-14T00:46:37;15.70;52.90
79571;DHT22;69034;49.444;7.758;2023-05-14T00:50:38;15.60;53.00
79571;DHT22;69034;49.444;7.758;2023-05-14T00:54:39;15.40;53.10
79571;DHT22;69034;49.444;7.758;2023-05-14T00:58:40;15.30;53.30
79571;DHT22;69034;49.444;7.758;2023-05-14T01:02:40;15.20;53.30
79571;DHT22;69034;49.444;7.758;2023-05-14T01:06:57;15.10;53.40
79571;DHT22;69034;49.444;7.758;2023-05-14T01:15:22;15.00;53.60
79571;DHT22;69034;49.444;7.758;2023-05-14T01:23:31;14.80;53.80
79571;DHT22;69034;49.444;7.758;2023-05-14T01:31:42;14.60;53.90
79571;DHT22;69034;49.444;7.758;2023-05-14T01:35:43;14.60;53.90
79571;DHT22;69034;49.444;7.758;2023-05-14T01:39:45;14.50;54.00
79571;DHT22;69034;49.444;7.758;2023-05-14T01:43:46;14.40;54.10
79571;DHT22;69034;49.444;7.758;2023-05-14T01:47:49;14.40;54.10
79571;DHT22;69034;49.444;7.758;2023-05-14T01:51:49;14.30;54.10
79571;DHT22;69034;49.444;7.758;2023-05-14T01:55:50;14.30;54.10
79571;DHT22;69034;49.444;7.758;2023-05-14T01:59:51;14.20;54.20
79571;DHT22;69034;49.444;7.758;2023-05-14T02:03:52;14.20;54.20
79571;DHT22;69034;49.444;7.758;2023-05-14T02:07:52;14.10;54.30
79571;DHT22;69034;49.444;7.758;2023-05-14T02:11:53;14.10;54.30
79571;DHT22;69034;49.444;7.758;2023-05-14T02:15:55;14.00;54.40
79571;DHT22;69034;49.444;7.758;2023-05-14T02:19:58;13.90;54.40
79571;DHT22;69034;49.444;7.758;2023-05-14T02:23:59;13.90;54.70
79571;DHT22;69034;49.444;7.758;2023-05-14T02:27:59;13.90;55.00
79571;DHT22;69034;49.444;7.758;2023-05-14T02:32:00;14.00;55.10
79571;DHT22;69034;49.444;7.758;2023-05-14T02:36:00;14.00;55.00
79571;DHT22;69034;49.444;7.758;2023-05-14T02:40:01;14.10;55.00
79571;DHT22;69034;49.444;7.758;2023-05-14T02:44:03;14.10;55.00
79571;DHT22;69034;49.444;7.758;2023-05-14T02:48:04;14.20;54.80
79571;DHT22;69034;49.444;7.758;2023-05-14T02:52:05;14.30;54.70
79571;DHT22;69034;49.444;7.758;2023-05-14T02:56:05;14.30;54.60
79571;DHT22;69034;49.444;7.758;2023-05-14T03:00:07;14.30;54.40
79571;DHT22;69034;49.444;7.758;2023-05-14T03:04:08;14.20;54.40
79571;DHT22;69034;49.444;7.758;2023-05-14T03:08:09;14.10;54.50
79571;DHT22;69034;49.444;7.758;2023-05-14T03:12:10;13.90;54.80
79571;DHT22;69034;49.444;7.758;2023-05-14T03:16:12;13.80;54.80
79571;DHT22;69034;49.444;7.758;2023-05-14T03:20:12;13.70;54.90
79571;DHT22;69034;49.444;7.758;2023-05-14T03:24:13;13.60;55.00
79571;DHT22;69034;49.444;7.758;2023-05-14T03:28:14;13.50;55.10
79571;DHT22;69034;49.444;7.758;2023-05-14T03:32:14;13.40;55.10
79571;DHT22;69034;49.444;7.758;2023-05-14T03:36:15;13.40;55.10
79571;DHT22;69034;49.444;7.758;2023-05-14T03:40:16;13.40;55.20
79571;DHT22;69034;49.444;7.758;2023-05-14T03:44:17;13.30;55.30
79571;DHT22;69034;49.444;7.758;2023-05-14T03:48:18;13.30;55.30
79571;DHT22;69034;49.444;7.758;2023-05-14T03:52:19;13.20;55.30
79571;DHT22;69034;49.444;7.758;2023-05-14T03:56:19;13.20;55.30
79571;DHT22;69034;49.444;7.758;2023-05-14T04:00:20;13.10;55.40
79571;DHT22;69034;49.444;7.758;2023-05-14T04:04:21;13.10;55.40
79571;DHT22;69034;49.444;7.758;2023-05-14T04:08:21;13.10;55.40
79571;DHT22;69034;49.444;7.758;2023-05-14T04:12:22;13.10;55.50
79571;DHT22;69034;49.444;7.758;2023-05-14T04:16:23;13.10;55.50
79571;DHT22;69034;49.444;7.758;2023-05-14T04:20:23;13.10;55.50
79571;DHT22;69034;49.444;7.758;2023-05-14T04:24:24;13.10;55.50
79571;DHT22;69034;49.444;7.758;2023-05-14T04:28:25;13.10;55.50
79571;DHT22;69034;49.444;7.758;2023-05-14T04:32:25;13.10;55.50
79571;DHT22;69034;49.444;7.758;2023-05-14T04:36:26;13.10;55.40
79571;DHT22;69034;49.444;7.758;2023-05-14T04:40:26;13.10;55.50
79571;DHT22;69034;49.444;7.758;2023-05-14T04:44:27;13.20;55.40
79571;DHT22;69034;49.444;7.758;2023-05-14T04:48:28;13.20;55.30
79571;DHT22;69034;49.444;7.758;2023-05-14T04:52:28;13.30;55.20
79571;DHT22;69034;49.444;7.758;2023-05-14T04:56:29;13.50;55.10
79571;DHT22;69034;49.444;7.758;2023-05-14T05:00:30;13.60;54.90
79571;DHT22;69034;49.444;7.758;2023-05-14T05:04:31;13.60;55.00
79571;DHT22;69034;49.444;7.758;2023-05-14T05:08:31;13.70;55.00
79571;DHT22;69034;49.444;7.758;2023-05-14T05:12:32;14.00;54.60
79571;DHT22;69034;49.444;7.758;2023-05-14T05:16:34;14.30;54.20
79571;DHT22;69034;49.444;7.758;2023-05-14T05:20:35;14.50;53.80
79571;DHT22;69034;49.444;7.758;2023-05-14T05:24:35;14.70;53.60
79571;DHT22;69034;49.444;7.758;2023-05-14T05:28:36;14.90;53.40
79571;DHT22;69034;49.444;7.758;2023-05-14T05:32:37;15.20;53.20
79571;DHT22;69034;49.444;7.758;2023-05-14T05:36:37;15.40;53.00
79571;DHT22;69034;49.444;7.758;2023-05-14T05:40:38;15.70;52.50
79571;DHT22;69034;49.444;7.758;2023-05-14T05:44:39;16.00;52.20
79571;DHT22;69034;49.444;7.758;2023-05-14T05:48:39;16.10;52.10
79571;DHT22;69034;49.444;7.758;2023-05-14T05:52:40;16.20;52.00
79571;DHT22;69034;49.444;7.758;2023-05-14T05:56:41;16.30;52.00
79571;DHT22;69034;49.444;7.758;2023-05-14T06:00:41;16.30;52.20
79571;DHT22;69034;49.444;7.758;2023-05-14T06:04:42;16.20;52.20
79571;DHT22;69034;49.444;7.758;2023-05-14T06:08:42;16.30;52.20
79571;DHT22;69034;49.444;7.758;2023-05-14T06:12:43;16.30;52.40
79571;DHT22;69034;49.444;7.758;2023-05-14T06:16:44;16.20;52.50
79571;DHT22;69034;49.444;7.758;2023-05-14T06:20:45;16.30;52.30
79571;DHT22;69034;49.444;7.758;2023-05-14T06:24:46;16.70;51.90
79571;DHT22;69034;49.444;7.758;2023-05-14T06:28:47;17.10;51.50
79571;DHT22;69034;49.444;7.758;2023-05-14T06:32:47;17.20;51.60
79571;DHT22;69034;49.444;7.758;2023-05-14T06:36:48;17.30;51.60
79571;DHT22;69034;49.444;7.758;2023-05-14T06:40:48;17.40;51.40
79571;DHT22;69034;49.444;7.758;2023-05-14T06:44:49;17.70;51.10
79571;DHT22;69034;49.444;7.758;2023-05-14T06:48:50;18.20;50.40
79571;DHT22;69034;49.444;7.758;2023-05-14T06:52:50;18.70;50.20
79571;DHT22;69034;49.444;7.758;2023-05-14T06:56:51;19.10;50.00
79571;DHT22;69034;49.444;7.758;2023-05-14T07:00:52;19.40;49.90
79571;DHT22;69034;49.444;7.758;2023-05-14T07:04:53;19.60;49.60
79571;DHT22;69034;49.444;7.758;2023-05-14T07:08:53;19.80;49.50
79571;DHT22;69034;49.444;7.758;2023-05-14T07:12:54;20.10;49.10
79571;DHT22;69034;49.444;7.758;2023-05-14T07:16:55;20.30;49.30
79571;DHT22;69034;49.444;7.758;2023-05-14T07:20:56;20.50;49.20
79571;DHT22;69034;49.444;7.758;2023-05-14T07:24:57;21.10;49.20
79571;DHT22;69034;49.444;7.758;2023-05-14T07:28:57;21.70;49.00
79571;DHT22;69034;49.444;7.758;2023-05-14T07:32:58;22.30;48.80
79571;DHT22;69034;49.444;7.758;2023-05-14T07:36:59;22.90;48.30
79571;DHT22;69034;49.444;7.758;2023-05-14T07:40:59;23.60;47.40
79571;DHT22;69034;49.444;7.758;2023-05-14T07:45:00;24.20;46.60
79571;DHT22;69034;49.444;7.758;2023-05-14T07:49:01;24.80;46.10
79571;DHT22;69034;49.444;7.758;2023-05-14T07:53:01;25.30;45.70
79571;DHT22;69034;49.444;7.758;2023-05-14T07:57:02;25.70;45.50
79571;DHT22;69034;49.444;7.758;2023-05-14T08:01:03;26.00;44.90
79571;DHT22;69034;49.444;7.758;2023-05-14T08:05:06;26.50;44.30
79571;DHT22;69034;49.444;7.758;2023-05-14T08:09:07;26.80;43.80
79571;DHT22;69034;49.444;7.758;2023-05-14T08:13:09;27.30;43.40
79571;DHT22;69034;49.444;7.758;2023-05-14T08:17:10;27.80;43.10
79571;DHT22;69034;49.444;7.758;2023-05-14T08:21:11;28.40;42.40
79571;DHT22;69034;49.444;7.758;2023-05-14T08:25:11;28.90;41.80
79571;DHT22;69034;49.444;7.758;2023-05-14T08:29:12;29.40;40.90
79571;DHT22;69034;49.444;7.758;2023-05-14T08:33:12;29.50;40.20
79571;DHT22;69034;49.444;7.758;2023-05-14T08:37:13;29.30;39.70
79571;DHT22;69034;49.444;7.758;2023-05-14T08:41:14;29.30;38.90
79571;DHT22;69034;49.444;7.758;2023-05-14T08:45:27;29.30;38.60
79571;DHT22;69034;49.444;7.758;2023-05-14T08:49:42;29.60;37.90
79571;DHT22;69034;49.444;7.758;2023-05-14T08:53:43;29.70;36.90
79571;DHT22;69034;49.444;7.758;2023-05-14T08:57:44;29.50;36.70
79571;DHT22;69034;49.444;7.758;2023-05-14T09:01:47;29.10;36.20
79571;DHT22;69034;49.444;7.758;2023-05-14T09:05:50;29.20;36.10
79571;DHT22;69034;49.444;7.758;2023-05-14T09:09:51;28.70;35.50
79571;DHT22;69034;49.444;7.758;2023-05-14T09:13:54;28.00;35.50
79571;DHT22;69034;49.444;7.758;2023-05-14T09:17:55;27.80;35.10
79571;DHT22;69034;49.444;7.758;2023-05-14T09:21:57;28.40;34.80
79571;DHT22;69034;49.444;7.758;2023-05-14T09:26:04;29.10;34.00
79571;DHT22;69034;49.444;7.758;2023-05-14T09:30:06;29.30;33.70
79571;DHT22;69034;49.444;7.758;2023-05-14T09:34:07;29.00;33.70
79571;DHT22;69034;49.444;7.758;2023-05-14T09:38:08;29.00;33.90
79571;DHT22;69034;49.444;7.758;2023-05-14T09:42:08;29.00;33.70
79571;DHT22;69034;49.444;7.758;2023-05-14T09:46:11;29.10;33.20
79571;DHT22;69034;49.444;7.758;2023-05-14T09:50:13;29.60;32.40
79571;DHT22;69034;49.444;7.758;2023-05-14T09:54:14;29.30;32.30
79571;DHT22;69034;49.444;7.758;2023-05-14T09:58:14;28.80;32.50
79571;DHT22;69034;49.444;7.758;2023-05-14T10:02:34;28.50;32.60
79571;DHT22;69034;49.444;7.758;2023-05-14T10:06:40;28.10;33.00
79571;DHT22;69034;49.444;7.758;2023-05-14T10:10:43;27.70;33.00
79571;DHT22;69034;49.444;7.758;2023-05-14T10:14:46;27.30;33.30
79571;DHT22;69034;49.444;7.758;2023-05-14T10:18:56;27.00;33.60
79571;DHT22;69034;49.444;7.758;2023-05-14T10:23:00;27.20;33.20
79571;DHT22;69034;49.444;7.758;2023-05-14T10:27:01;28.70;31.50
79571;DHT22;69034;49.444;7.758;2023-05-14T10:31:02;28.70;32.00
79571;DHT22;69034;49.444;7.758;2023-05-14T10:35:23;28.60;32.20
79571;DHT22;69034;49.444;7.758;2023-05-14T10:43:46;29.40;30.70
79571;DHT22;69034;49.444;7.758;2023-05-14T10:47:47;28.90;31.60
79571;DHT22;69034;49.444;7.758;2023-05-14T10:51:48;28.70;31.10
79571;DHT22;69034;49.444;7.758;2023-05-14T10:55:48;29.10;31.00
79571;DHT22;69034;49.444;7.758;2023-05-14T10:59:55;30.90;29.40
79571;DHT22;69034;49.444;7.758;2023-05-14T11:03:57;32.80;28.00
79571;DHT22;69034;49.444;7.758;2023-05-14T11:07:58;31.60;29.20
79571;DHT22;69034;49.444;7.758;2023-05-14T11:11:59;34.00;27.40
79571;DHT22;69034;49.444;7.758;2023-05-14T11:16:01;33.40;28.50
79571;DHT22;69034;49.444;7.758;2023-05-14T11:20:02;32.30;29.70
79571;DHT22;69034;49.444;7.758;2023-05-14T11:24:05;31.30;30.50
79571;DHT22;69034;49.444;7.758;2023-05-14T11:28:06;30.20;30.80
79571;DHT22;69034;49.444;7.758;2023-05-14T11:32:07;29.30;30.60
79571;DHT22;69034;49.444;7.758;2023-05-14T11:36:10;28.90;30.90
79571;DHT22;69034;49.444;7.758;2023-05-14T11:40:14;29.60;31.00
79571;DHT22;69034;49.444;7.758;2023-05-14T11:44:18;31.90;28.30
79571;DHT22;69034;49.444;7.758;2023-05-14T11:48:19;31.80;27.50
79571;DHT22;69034;49.444;7.758;2023-05-14T11:52:20;31.40;27.80
79571;DHT22;69034;49.444;7.758;2023-05-14T11:56:21;31.30;28.10
79571;DHT22;69034;49.444;7.758;2023-05-14T12:00:22;33.40;26.60
79571;DHT22;69034;49.444;7.758;2023-05-14T12:04:24;34.80;25.00
79571;DHT22;69034;49.444;7.758;2023-05-14T12:08:26;37.80;19.00
79571;DHT22;69034;49.444;7.758;2023-05-14T12:12:26;34.80;24.80
79571;DHT22;69034;49.444;7.758;2023-05-14T12:16:30;33.10;26.60
79571;DHT22;69034;49.444;7.758;2023-05-14T12:20:31;35.50;19.60
79571;DHT22;69034;49.444;7.758;2023-05-14T12:24:32;38.30;18.70
79571;DHT22;69034;49.444;7.758;2023-05-14T12:28:34;39.40;16.90
79571;DHT22;69034;49.444;7.758;2023-05-14T12:32:37;37.60;18.50
79571;DHT22;69034;49.444;7.758;2023-05-14T12:36:39;40.30;17.30
79571;DHT22;69034;49.444;7.758;2023-05-14T12:40:40;42.00;15.90
79571;DHT22;69034;49.444;7.758;2023-05-14T12:44:41;43.20;15.60
79571;DHT22;69034;49.444;7.758;2023-05-14T12:48:41;41.30;15.60
79571;DHT22;69034;49.444;7.758;2023-05-14T12:52:42;43.80;15.40
79571;DHT22;69034;49.444;7.758;2023-05-14T12:56:43;44.00;15.40
79571;DHT22;69034;49.444;7.758;2023-05-14T13:00:43;45.10;14.80
79571;DHT22;69034;49.444;7.758;2023-05-14T13:04:44;44.70;15.40
79571;DHT22;69034;49.444;7.758;2023-05-14T13:08:45;43.60;15.50
79571;DHT22;69034;49.444;7.758;2023-05-14T13:12:45;42.40;13.90
79571;DHT22;69034;49.444;7.758;2023-05-14T13:16:46;43.50;14.60
79571;DHT22;69034;49.444;7.758;2023-05-14T13:20:47;45.10;13.10
79571;DHT22;69034;49.444;7.758;2023-05-14T13:24:47;45.00;12.90
79571;DHT22;69034;49.444;7.758;2023-05-14T13:28:48;42.10;14.10
79571;DHT22;69034;49.444;7.758;2023-05-14T13:32:49;43.10;14.50
79571;DHT22;69034;49.444;7.758;2023-05-14T13:36:50;44.90;14.10
79571;DHT22;69034;49.444;7.758;2023-05-14T13:40:51;46.80;13.30
79571;DHT22;69034;49.444;7.758;2023-05-14T13:44:52;44.80;13.50
79571;DHT22;69034;49.444;7.758;2023-05-14T13:48:52;46.40;12.60
79571;DHT22;69034;49.444;7.758;2023-05-14T13:52:53;46.90;13.40
79571;DHT22;69034;49.444;7.758;2023-05-14T13:56:53;48.50;11.90
79571;DHT22;69034;49.444;7.758;2023-05-14T14:00:54;44.00;13.10
79571;DHT22;69034;49.444;7.758;2023-05-14T14:04:55;41.10;14.10
79571;DHT22;69034;49.444;7.758;2023-05-14T14:08:56;44.50;13.40
79571;DHT22;69034;49.444;7.758;2023-05-14T14:12:57;45.60;13.30
79571;DHT22;69034;49.444;7.758;2023-05-14T14:16:57;44.40;12.70
79571;DHT22;69034;49.444;7.758;2023-05-14T14:20:58;44.50;12.60
79571;DHT22;69034;49.444;7.758;2023-05-14T14:25:01;46.00;11.30
79571;DHT22;69034;49.444;7.758;2023-05-14T14:29:02;42.80;12.60
79571;DHT22;69034;49.444;7.758;2023-05-14T14:33:04;43.70;13.30
79571;DHT22;69034;49.444;7.758;2023-05-14T14:37:05;43.60;12.60
79571;DHT22;69034;49.444;7.758;2023-05-14T14:41:05;40.50;13.60
79571;DHT22;69034;49.444;7.758;2023-05-14T14:45:07;40.30;13.70
79571;DHT22;69034;49.444;7.758;2023-05-14T14:49:08;38.20;14.30
79571;DHT22;69034;49.444;7.758;2023-05-14T14:53:09;40.00;14.40
79571;DHT22;69034;49.444;7.758;2023-05-14T14:57:10;42.90;13.30
79571;DHT22;69034;49.444;7.758;2023-05-14T15:01:11;42.90;13.20
79571;DHT22;69034;49.444;7.758;2023-05-14T15:05:11;43.30;13.20
79571;DHT22;69034;49.444;7.758;2023-05-14T15:09:12;44.90;12.60
79571;DHT22;69034;49.444;7.758;2023-05-14T15:13:12;46.30;12.60
79571;DHT22;69034;49.444;7.758;2023-05-14T15:17:13;46.30;12.60
79571;DHT22;69034;49.444;7.758;2023-05-14T15:21:14;46.90;12.20
79571;DHT22;69034;49.444;7.758;2023-05-14T15:25:15;47.30;12.20
79571;DHT22;69034;49.444;7.758;2023-05-14T15:29:15;47.70;12.10
79571;DHT22;69034;49.444;7.758;2023-05-14T15:33:16;47.90;11.70
79571;DHT22;69034;49.444;7.758;2023-05-14T15:37:18;47.90;11.80
79571;DHT22;69034;49.444;7.758;2023-05-14T15:41:19;47.80;12.00
79571;DHT22;69034;49.444;7.758;2023-05-14T15:45:20;46.90;11.80
79571;DHT22;69034;49.444;7.758;2023-05-14T15:49:21;43.10;12.80
79571;DHT22;69034;49.444;7.758;2023-05-14T15:53:21;40.30;14.10
79571;DHT22;69034;49.444;7.758;2023-05-14T15:57:22;38.10;14.90
79571;DHT22;69034;49.444;7.758;2023-05-14T16:01:23;36.40;15.80
79571;DHT22;69034;49.444;7.758;2023-05-14T16:05:24;34.90;16.80
79571;DHT22;69034;49.444;7.758;2023-05-14T16:09:26;33.60;17.50
79571;DHT22;69034;49.444;7.758;2023-05-14T16:13:26;32.30;18.30
79571;DHT22;69034;49.444;7.758;2023-05-14T16:17:27;31.60;18.90
79571;DHT22;69034;49.444;7.758;2023-05-14T16:21:29;31.90;18.80
79571;DHT22;69034;49.444;7.758;2023-05-14T16:25:31;31.20;19.40
79571;DHT22;69034;49.444;7.758;2023-05-14T16:29:31;30.20;24.20
79571;DHT22;69034;49.444;7.758;2023-05-14T16:33:32;29.50;24.80
79571;DHT22;69034;49.444;7.758;2023-05-14T16:37:33;29.30;25.10
79571;DHT22;69034;49.444;7.758;2023-05-14T16:41:34;30.30;24.70
79571;DHT22;69034;49.444;7.758;2023-05-14T16:45:35;31.10;24.30
79571;DHT22;69034;49.444;7.758;2023-05-14T16:49:36;32.30;19.60
79571;DHT22;69034;49.444;7.758;2023-05-14T16:53:37;33.00;19.20
79571;DHT22;69034;49.444;7.758;2023-05-14T16:57:38;33.80;18.60
79571;DHT22;69034;49.444;7.758;2023-05-14T17:01:38;34.50;18.40
79571;DHT22;69034;49.444;7.758;2023-05-14T17:05:42;32.80;19.50
79571;DHT22;69034;49.444;7.758;2023-05-14T17:09:43;31.20;25.00
79571;DHT22;69034;49.444;7.758;2023-05-14T17:13:44;29.80;26.40
79571;DHT22;69034;49.444;7.758;2023-05-14T17:17:44;29.00;27.30
79571;DHT22;69034;49.444;7.758;2023-05-14T17:21:45;28.20;27.80
79571;DHT22;69034;49.444;7.758;2023-05-14T17:25:46;27.60;28.40
79571;DHT22;69034;49.444;7.758;2023-05-14T17:29:46;27.10;28.70
79571;DHT22;69034;49.444;7.758;2023-05-14T17:33:50;26.60;29.30
79571;DHT22;69034;49.444;7.758;2023-05-14T17:37:50;26.10;29.70
79571;DHT22;69034;49.444;7.758;2023-05-14T17:41:51;25.70;30.00
79571;DHT22;69034;49.444;7.758;2023-05-14T17:45:52;25.40;30.40
79571;DHT22;69034;49.444;7.758;2023-05-14T17:49:52;25.00;30.80
79571;DHT22;69034;49.444;7.758;2023-05-14T17:53:55;24.90;31.00
79571;DHT22;69034;49.444;7.758;2023-05-14T17:57:56;24.80;31.20
79571;DHT22;69034;49.444;7.758;2023-05-14T18:01:56;24.70;31.90
79571;DHT22;69034;49.444;7.758;2023-05-14T18:05:57;24.60;32.50
79571;DHT22;69034;49.444;7.758;2023-05-14T18:09:58;24.50;33.30
79571;DHT22;69034;49.444;7.758;2023-05-14T18:13:59;24.40;33.60
79571;DHT22;69034;49.444;7.758;2023-05-14T18:18:00;24.20;34.10
79571;DHT22;69034;49.444;7.758;2023-05-14T18:22:01;24.10;34.50
79571;DHT22;69034;49.444;7.758;2023-05-14T18:26:01;24.00;34.80
79571;DHT22;69034;49.444;7.758;2023-05-14T18:30:02;23.90;34.90
79571;DHT22;69034;49.444;7.758;2023-05-14T18:34:03;23.70;35.40
79571;DHT22;69034;49.444;7.758;2023-05-14T18:38:04;23.60;35.50
79571;DHT22;69034;49.444;7.758;2023-05-14T18:42:07;23.40;35.70
79571;DHT22;69034;49.444;7.758;2023-05-14T18:46:08;23.20;35.90
79571;DHT22;69034;49.444;7.758;2023-05-14T18:50:10;23.00;36.20
79571;DHT22;69034;49.444;7.758;2023-05-14T18:54:11;22.80;36.60
79571;DHT22;69034;49.444;7.758;2023-05-14T18:58:11;22.60;36.60
79571;DHT22;69034;49.444;7.758;2023-05-14T19:02:13;22.30;36.60
79571;DHT22;69034;49.444;7.758;2023-05-14T19:06:16;22.10;36.80
79571;DHT22;69034;49.444;7.758;2023-05-14T19:10:17;21.90;37.10
79571;DHT22;69034;49.444;7.758;2023-05-14T19:14:18;21.60;37.40
79571;DHT22;69034;49.444;7.758;2023-05-14T19:18:18;21.40;37.50
79571;DHT22;69034;49.444;7.758;2023-05-14T19:22:19;21.20;37.60
79571;DHT22;69034;49.444;7.758;2023-05-14T19:26:21;21.00;37.70
79571;DHT22;69034;49.444;7.758;2023-05-14T19:30:22;20.90;37.90
79571;DHT22;69034;49.444;7.758;2023-05-14T19:34:23;20.70;37.90
79571;DHT22;69034;49.444;7.758;2023-05-14T19:42:27;20.50;38.40
79571;DHT22;69034;49.444;7.758;2023-05-14T19:46:30;20.30;38.50
79571;DHT22;69034;49.444;7.758;2023-05-14T19:50:30;20.20;38.90
79571;DHT22;69034;49.444;7.758;2023-05-14T19:54:31;20.00;39.00
79571;DHT22;69034;49.444;7.758;2023-05-14T19:58:32;19.90;39.00
79571;DHT22;69034;49.444;7.758;2023-05-14T20:02:32;19.80;39.20
79571;DHT22;69034;49.444;7.758;2023-05-14T20:06:33;19.70;39.50
79571;DHT22;69034;49.444;7.758;2023-05-14T20:10:34;19.60;40.50
79571;DHT22;69034;49.444;7.758;2023-05-14T20:14:34;19.60;41.10
79571;DHT22;69034;49.444;7.758;2023-05-14T20:18:35;19.70;41.20
79571;DHT22;69034;49.444;7.758;2023-05-14T20:22:36;19.70;41.30
79571;DHT22;69034;49.444;7.758;2023-05-14T20:26:37;19.70;41.40
79571;DHT22;69034;49.444;7.758;2023-05-14T20:30:38;19.60;41.60
79571;DHT22;69034;49.444;7.758;2023-05-14T20:34:39;19.60;41.60
79571;DHT22;69034;49.444;7.758;2023-05-14T20:38:40;19.50;41.90
79571;DHT22;69034;49.444;7.758;2023-05-14T20:42:41;19.50;42.00
79571;DHT22;69034;49.444;7.758;2023-05-14T20:46:41;19.50;41.90
79571;DHT22;69034;49.444;7.758;2023-05-14T20:50:44;19.40;42.00
79571;DHT22;69034;49.444;7.758;2023-05-14T20:54:45;19.40;42.10
79571;DHT22;69034;49.444;7.758;2023-05-14T20:58:46;19.30;41.80
79571;DHT22;69034;49.444;7.758;2023-05-14T21:02:46;19.10;41.80
79571;DHT22;69034;49.444;7.758;2023-05-14T21:06:48;18.90;41.90
79571;DHT22;69034;49.444;7.758;2023-05-14T21:10:48;18.80;42.00
79571;DHT22;69034;49.444;7.758;2023-05-14T21:14:49;18.70;42.10
79571;DHT22;69034;49.444;7.758;2023-05-14T21:18:50;18.50;42.20
79571;DHT22;69034;49.444;7.758;2023-05-14T21:22:50;18.40;42.30
79571;DHT22;69034;49.444;7.758;2023-05-14T21:26:51;18.30;42.40
79571;DHT22;69034;49.444;7.758;2023-05-14T21:30:52;18.20;42.60
79571;DHT22;69034;49.444;7.758;2023-05-14T21:34:52;18.10;42.80
79571;DHT22;69034;49.444;7.758;2023-05-14T21:38:59;18.00;43.10
79571;DHT22;69034;49.444;7.758;2023-05-14T21:43:00;17.80;43.30
79571;DHT22;69034;49.444;7.758;2023-05-14T21:47:00;17.80;43.30
79571;DHT22;69034;49.444;7.758;2023-05-14T21:51:01;17.60;43.50
79571;DHT22;69034;49.444;7.758;2023-05-14T21:55:02;17.50;43.70
79571;DHT22;69034;49.444;7.758;2023-05-14T21:59:02;17.50;43.80
79571;DHT22;69034;49.444;7.758;2023-05-14T22:03:04;17.30;44.00
79571;DHT22;69034;49.444;7.758;2023-05-14T22:07:04;17.30;44.20
79571;DHT22;69034;49.444;7.758;2023-05-14T22:11:05;17.20;44.30
79571;DHT22;69034;49.444;7.758;2023-05-14T22:15:06;17.10;44.40
79571;DHT22;69034;49.444;7.758;2023-05-14T22:19:07;17.00;44.60
79571;DHT22;69034;49.444;7.758;2023-05-14T22:23:07;16.90;44.90
79571;DHT22;69034;49.444;7.758;2023-05-14T22:27:08;17.00;45.20
79571;DHT22;69034;49.444;7.758;2023-05-14T22:31:09;17.10;45.40
79571;DHT22;69034;49.444;7.758;2023-05-14T22:35:10;17.10;45.40
79571;DHT22;69034;49.444;7.758;2023-05-14T22:39:11;17.20;45.30
79571;DHT22;69034;49.444;7.758;2023-05-14T22:43:11;17.20;45.30
79571;DHT22;69034;49.444;7.758;2023-05-14T22:47:12;17.20;45.40
79571;DHT22;69034;49.444;7.758;2023-05-14T22:51:12;17.20;45.30
79571;DHT22;69034;49.444;7.758;2023-05-14T22:55:15;17.20;45.30
79571;DHT22;69034;49.444;7.758;2023-05-14T22:59:16;17.20;45.40
79571;DHT22;69034;49.444;7.758;2023-05-14T23:03:17;17.20;45.40
79571;DHT22;69034;49.444;7.758;2023-05-14T23:07:17;17.10;45.30
79571;DHT22;69034;49.444;7.758;2023-05-14T23:11:18;17.00;45.30
79571;DHT22;69034;49.444;7.758;2023-05-14T23:15:19;16.90;45.40
79571;DHT22;69034;49.444;7.758;2023-05-14T23:19:20;16.80;45.40
79571;DHT22;69034;49.444;7.758;2023-05-14T23:23:21;16.70;45.60
79571;DHT22;69034;49.444;7.758;2023-05-14T23:27:21;16.60;45.80
79571;DHT22;69034;49.444;7.758;2023-05-14T23:31:22;16.50;46.10
79571;DHT22;69034;49.444;7.758;2023-05-14T23:35:23;16.40;46.50
79571;DHT22;69034;49.444;7.758;2023-05-14T23:39:23;16.30;46.60
79571;DHT22;69034;49.444;7.758;2023-05-14T23:43:24;16.20;46.70
79571;DHT22;69034;49.444;7.758;2023-05-14T23:47:25;16.10;46.60
79571;DHT22;69034;49.444;7.758;2023-05-14T23:51:26;16.10;46.70
79571;DHT22;69034;49.444;7.758;2023-05-14T23:55:27;16.00;47.00
79571;DHT22;69034;49.444;7.758;2023-05-14T23:59:27;16.00;46.90
